createdAt,value
2019-02-15T00:01:08.177Z,1.93
2019-02-15T00:03:34.719Z,3.23
2019-02-15T00:06:01.422Z,1.43
2019-02-15T00:08:28.039Z,1.73
2019-02-15T00:10:54.527Z,2.17
2019-02-15T00:13:22.129Z,1.43
2019-02-15T00:15:48.615Z,1.77
2019-02-15T00:18:42.054Z,1.27
2019-02-15T00:21:19.923Z,2.13
2019-02-15T00:23:46.374Z,1.13
2019-02-15T00:26:13.102Z,2.07
2019-02-15T00:28:39.778Z,1.90
2019-02-15T00:31:08.177Z,1.50
2019-02-15T00:33:34.938Z,2.17
2019-02-15T00:36:01.491Z,3.20
2019-02-15T00:38:28.040Z,1.80
2019-02-15T00:40:54.582Z,1.33
2019-02-15T00:43:22.537Z,1.00
2019-02-15T00:46:00.819Z,1.50
2019-02-15T00:48:27.401Z,3.00
2019-02-15T00:51:03.425Z,1.20
2019-02-15T00:53:40.144Z,1.70
2019-02-15T00:56:23.640Z,1.43
2019-02-15T00:59:09.840Z,1.60
2019-02-15T01:01:51.752Z,1.50
2019-02-15T01:04:28.274Z,1.83
2019-02-15T01:07:20.299Z,1.30
2019-02-15T01:09:51.864Z,1.67
2019-02-15T01:12:44.312Z,2.87
2019-02-15T01:15:10.875Z,2.07
2019-02-15T01:17:37.376Z,2.33
2019-02-15T01:20:04.418Z,1.13
2019-02-15T01:22:30.980Z,2.47
2019-02-15T01:24:58.790Z,7.17
2019-02-15T01:27:47.629Z,2.90
2019-02-15T01:30:31.149Z,1.53
2019-02-15T01:33:17.359Z,1.00
2019-02-15T01:36:13.328Z,2.00
2019-02-15T01:38:58.022Z,0.50
2019-02-15T01:41:30.492Z,1.00
2019-02-15T01:44:07.899Z,1.07
2019-02-15T01:46:53.166Z,1.37
2019-02-15T01:49:19.730Z,0.70
2019-02-15T01:51:46.501Z,0.70
2019-02-15T01:54:13.453Z,3.47
2019-02-15T01:56:40.009Z,0.97
2019-02-15T01:59:06.529Z,1.47
2019-02-15T02:01:33.037Z,1.23
2019-02-15T02:03:59.522Z,1.80
2019-02-15T02:06:26.064Z,0.93
2019-02-15T02:08:52.558Z,1.37
2019-02-15T02:11:19.045Z,0.90
2019-02-15T02:13:49.767Z,1.23
2019-02-15T02:16:14.067Z,4.20
2019-02-15T02:18:40.534Z,2.37
2019-02-15T02:21:07.073Z,1.67
2019-02-15T02:23:33.578Z,2.93
2019-02-15T02:26:00.046Z,1.27
2019-02-15T02:28:26.551Z,2.40
2019-02-15T02:30:53.028Z,1.10
2019-02-15T02:33:21.649Z,1.10
2019-02-15T02:35:48.161Z,1.13
2019-02-15T02:38:14.690Z,1.70
2019-02-15T02:40:41.161Z,2.93
2019-02-15T02:43:07.699Z,0.63
2019-02-15T02:45:34.261Z,0.70
2019-02-15T02:48:00.776Z,0.90
2019-02-15T02:50:27.406Z,0.93
2019-02-15T02:52:54.063Z,1.90
2019-02-15T02:55:20.905Z,1.33
2019-02-15T02:57:47.707Z,2.10
2019-02-15T03:00:14.250Z,1.00
2019-02-15T03:02:40.712Z,0.73
2019-02-15T03:05:07.354Z,0.70
2019-02-15T03:07:33.912Z,0.70
2019-02-15T03:10:00.818Z,0.80
2019-02-15T03:12:27.284Z,2.80
2019-02-15T03:14:53.832Z,3.07
2019-02-15T03:17:20.310Z,0.60
2019-02-15T03:19:47.093Z,1.37
2019-02-15T03:22:13.593Z,1.53
2019-02-15T03:24:40.128Z,2.00
2019-02-15T03:27:06.774Z,1.23
2019-02-15T03:29:33.286Z,0.97
2019-02-15T03:32:00.029Z,1.27
2019-02-15T03:34:27.581Z,0.80
2019-02-15T03:37:06.435Z,1.17
2019-02-15T03:39:45.151Z,2.43
2019-02-15T03:42:13.094Z,1.13
2019-02-15T03:44:39.624Z,0.93
2019-02-15T03:47:06.173Z,1.57
2019-02-15T03:49:32.663Z,4.17
2019-02-15T03:51:59.414Z,0.93
2019-02-15T03:54:25.899Z,1.50
2019-02-15T03:56:52.460Z,0.87
2019-02-15T03:59:19.207Z,1.20
2019-02-15T04:01:45.713Z,1.90
2019-02-15T04:04:12.637Z,1.60
2019-02-15T04:06:39.173Z,1.30
2019-02-15T04:09:05.774Z,3.57
2019-02-15T04:11:32.544Z,1.77
2019-02-15T04:13:59.035Z,1.70
2019-02-15T04:16:25.633Z,1.27
2019-02-15T04:18:52.116Z,1.83
2019-02-15T04:21:18.673Z,1.63
2019-02-15T04:23:45.229Z,1.00
2019-02-15T04:26:11.793Z,1.73
2019-02-15T04:28:38.338Z,0.70
2019-02-15T04:31:04.844Z,2.43
2019-02-15T04:33:31.389Z,1.40
2019-02-15T04:35:57.931Z,2.03
2019-02-15T04:38:25.405Z,1.93
2019-02-15T04:40:52.392Z,1.10
2019-02-15T04:43:19.270Z,1.00
2019-02-15T04:45:45.767Z,0.47
2019-02-15T04:48:12.717Z,0.70
2019-02-15T04:50:39.191Z,0.77
2019-02-15T04:53:05.704Z,0.80
2019-02-15T04:55:32.453Z,0.40
2019-02-15T04:57:58.946Z,0.73
2019-02-15T05:00:25.520Z,0.70
2019-02-15T05:02:52.041Z,0.50
2019-02-15T05:05:18.532Z,0.80
2019-02-15T05:07:44.980Z,1.03
2019-02-15T05:10:11.484Z,0.83
2019-02-15T05:12:37.972Z,1.23
2019-02-15T05:15:04.573Z,0.40
2019-02-15T05:17:31.020Z,1.47
2019-02-15T05:19:57.502Z,1.07
2019-02-15T05:22:23.989Z,0.60
2019-02-15T05:24:50.514Z,2.03
2019-02-15T05:27:16.995Z,2.67
2019-02-15T05:29:43.445Z,0.90
2019-02-15T05:32:09.967Z,1.00
2019-02-15T05:34:36.561Z,0.97
2019-02-15T05:37:03.135Z,1.73
2019-02-15T05:39:29.646Z,1.27
2019-02-15T05:41:56.575Z,0.30
2019-02-15T05:44:23.092Z,0.57
2019-02-15T05:46:49.959Z,0.80
2019-02-15T05:49:16.394Z,0.30
2019-02-15T05:51:42.898Z,1.10
2019-02-15T05:54:09.430Z,1.10
2019-02-15T05:56:35.981Z,1.17
2019-02-15T05:59:02.435Z,0.80
2019-02-15T06:01:29.531Z,0.60
2019-02-15T06:03:56.046Z,1.33
2019-02-15T06:06:22.549Z,1.53
2019-02-15T06:08:50.341Z,2.23
2019-02-15T06:11:16.832Z,2.93
2019-02-15T06:13:43.645Z,2.00
2019-02-15T06:16:10.106Z,1.73
2019-02-15T06:18:36.623Z,1.17
2019-02-15T06:21:03.135Z,0.97
2019-02-15T06:23:29.670Z,1.03
2019-02-15T06:25:56.150Z,1.67
2019-02-15T06:28:22.703Z,2.60
2019-02-15T06:30:49.188Z,0.87
2019-02-15T06:33:15.965Z,2.90
2019-02-15T06:35:42.512Z,1.40
2019-02-15T06:38:09.221Z,1.53
2019-02-15T06:40:36.088Z,2.97
2019-02-15T06:43:03.119Z,4.10
2019-02-15T06:45:29.705Z,1.50
2019-02-15T06:47:56.246Z,4.10
2019-02-15T06:50:22.935Z,2.63
2019-02-15T06:52:49.642Z,0.93
2019-02-15T06:55:16.163Z,1.10
2019-02-15T06:57:42.800Z,2.07
2019-02-15T07:00:42.041Z,1.90
2019-02-15T07:03:31.623Z,1.93
2019-02-15T07:05:58.543Z,1.43
2019-02-15T07:08:25.071Z,3.07
2019-02-15T07:10:52.203Z,1.90
2019-02-15T07:13:20.860Z,2.53
2019-02-15T07:15:47.538Z,1.17
2019-02-15T07:18:14.284Z,1.40
2019-02-15T07:20:41.017Z,1.73
2019-02-15T07:23:07.649Z,4.63
2019-02-15T07:25:34.190Z,1.23
2019-02-15T07:28:00.904Z,1.27
2019-02-15T07:30:27.855Z,3.00
2019-02-15T07:32:54.459Z,1.10
2019-02-15T07:35:21.273Z,2.20
2019-02-15T07:37:48.011Z,1.70
2019-02-15T07:40:14.593Z,2.47
2019-02-15T07:42:41.148Z,1.57
2019-02-15T07:45:08.245Z,1.77
2019-02-15T07:47:35.377Z,1.37
2019-02-15T07:50:02.020Z,2.60
2019-02-15T07:52:35.735Z,1.10
2019-02-15T07:55:03.046Z,1.70
2019-02-15T07:57:30.740Z,3.70
2019-02-15T07:59:57.987Z,1.67
2019-02-15T08:02:29.000Z,2.07
2019-02-15T08:04:56.877Z,2.43
2019-02-15T08:07:23.547Z,2.63
2019-02-15T08:09:50.100Z,2.60
2019-02-15T08:12:16.872Z,2.33
2019-02-15T08:14:43.442Z,1.43
2019-02-15T08:17:10.001Z,1.70
2019-02-15T08:19:36.573Z,2.00
2019-02-15T08:22:03.662Z,1.27
2019-02-15T08:24:30.416Z,1.30
2019-02-15T08:26:57.338Z,1.57
2019-02-15T08:29:24.691Z,0.80
2019-02-15T08:31:53.525Z,3.50
2019-02-15T08:34:20.497Z,1.20
2019-02-15T08:36:47.066Z,0.80
2019-02-15T08:39:14.038Z,1.00
2019-02-15T08:41:41.101Z,2.27
2019-02-15T08:44:07.853Z,1.73
2019-02-15T08:46:34.449Z,1.70
2019-02-15T08:49:01.471Z,2.43
2019-02-15T08:51:29.157Z,4.50
2019-02-15T08:53:55.809Z,2.90
2019-02-15T08:56:22.485Z,2.83
2019-02-15T08:58:49.357Z,2.17
2019-02-15T09:01:16.006Z,1.60
2019-02-15T09:03:42.773Z,1.47
2019-02-15T09:06:09.958Z,1.77
2019-02-15T09:08:37.636Z,3.37
2019-02-15T09:11:04.412Z,2.87
2019-02-15T09:13:31.379Z,2.60
2019-02-15T09:15:58.981Z,2.77
2019-02-15T09:18:25.517Z,5.80
2019-02-15T09:20:52.798Z,3.27
2019-02-15T09:23:19.389Z,4.93
2019-02-15T09:25:46.099Z,4.70
2019-02-15T09:28:26.551Z,5.73
2019-02-15T09:30:54.224Z,3.03
2019-02-15T09:33:20.857Z,4.60
2019-02-15T09:35:47.414Z,2.53
2019-02-15T09:38:14.006Z,2.80
2019-02-15T09:40:40.594Z,3.40
2019-02-15T09:43:07.197Z,3.50
2019-02-15T09:45:33.787Z,3.97
2019-02-15T09:48:00.776Z,4.53
2019-02-15T09:50:27.569Z,3.97
2019-02-15T09:52:54.370Z,4.77
2019-02-15T09:55:21.091Z,3.20
2019-02-15T09:57:48.076Z,4.80
2019-02-15T10:00:18.397Z,3.57
2019-02-15T10:02:45.047Z,3.20
2019-02-15T10:05:12.135Z,3.67
2019-02-15T10:07:40.975Z,12.00
2019-02-15T10:10:07.691Z,6.23
2019-02-15T10:12:34.277Z,5.13
2019-02-15T10:15:01.004Z,4.20
2019-02-15T10:17:27.522Z,3.63
2019-02-15T10:19:54.232Z,3.70
2019-02-15T10:22:20.825Z,2.83
2019-02-15T10:24:47.457Z,4.27
2019-02-15T10:27:14.312Z,4.13
2019-02-15T10:29:40.891Z,6.67
2019-02-15T10:32:07.507Z,5.87
2019-02-15T10:34:34.157Z,8.20
2019-02-15T10:37:00.662Z,7.37
2019-02-15T10:39:27.227Z,5.10
2019-02-15T10:41:53.841Z,5.00
2019-02-15T10:44:22.521Z,7.37
2019-02-15T10:46:49.066Z,3.90
2019-02-15T10:49:15.617Z,4.97
2019-02-15T10:51:42.817Z,6.60
2019-02-15T10:54:09.367Z,4.37
2019-02-15T10:56:35.899Z,4.27
2019-02-15T10:59:02.654Z,2.97
2019-02-15T11:01:29.279Z,5.93
2019-02-15T11:03:56.012Z,5.97
2019-02-15T11:06:22.784Z,3.80
2019-02-15T11:08:49.414Z,4.40
2019-02-15T11:11:16.453Z,2.37
2019-02-15T11:13:43.234Z,3.03
2019-02-15T11:16:09.797Z,4.63
2019-02-15T11:18:36.467Z,2.33
2019-02-15T11:21:12.251Z,1.87
2019-02-15T11:23:42.176Z,4.13
2019-02-15T11:26:08.799Z,3.07
2019-02-15T11:28:35.423Z,4.40
2019-02-15T11:31:02.436Z,6.40
2019-02-15T11:33:29.651Z,5.47
2019-02-15T11:35:56.207Z,4.47
2019-02-15T11:38:22.850Z,5.80
2019-02-15T11:40:49.370Z,6.43
2019-02-15T11:43:15.918Z,9.37
2019-02-15T11:45:42.421Z,5.73
2019-02-15T11:48:08.953Z,6.53
2019-02-15T11:50:35.480Z,7.90
2019-02-15T11:53:02.275Z,6.00
2019-02-15T11:55:30.961Z,6.43
2019-02-15T11:57:57.567Z,4.53
2019-02-15T12:00:30.762Z,5.50
2019-02-15T12:02:59.246Z,5.80
2019-02-15T12:05:25.771Z,5.67
2019-02-15T12:07:52.306Z,6.37
2019-02-15T12:10:18.905Z,7.73
2019-02-15T12:12:45.434Z,5.13
2019-02-15T12:15:12.073Z,5.47
2019-02-15T12:17:38.604Z,3.27
2019-02-15T12:20:30.229Z,6.30
2019-02-15T12:22:56.762Z,6.77
2019-02-15T12:25:23.295Z,4.60
2019-02-15T12:27:51.865Z,11.03
2019-02-15T12:30:18.493Z,9.07
2019-02-15T12:32:45.035Z,4.67
2019-02-15T12:35:11.864Z,5.23
2019-02-15T12:37:38.616Z,3.70
2019-02-15T12:40:05.385Z,4.50
2019-02-15T12:42:31.889Z,6.17
2019-02-15T12:44:58.596Z,5.60
2019-02-15T12:47:25.085Z,3.30
2019-02-15T12:49:51.614Z,3.47
2019-02-15T12:52:21.630Z,6.43
2019-02-15T12:54:48.196Z,4.47
2019-02-15T12:57:42.932Z,4.63
2019-02-15T13:00:11.275Z,3.90
2019-02-15T13:02:38.120Z,3.57
2019-02-15T13:05:05.142Z,4.63
2019-02-15T13:07:31.794Z,3.67
2019-02-15T13:09:58.389Z,3.00
2019-02-15T13:12:24.863Z,2.97
2019-02-15T13:14:51.411Z,6.80
2019-02-15T13:17:24.454Z,6.63
2019-02-15T13:19:46.635Z,4.67
2019-02-15T13:22:13.905Z,6.37
2019-02-15T13:24:40.520Z,4.40
2019-02-15T13:27:07.385Z,5.17
2019-02-15T13:29:33.936Z,5.83
2019-02-15T13:32:00.730Z,4.67
2019-02-15T13:34:27.263Z,4.43
2019-02-15T13:36:53.820Z,5.27
2019-02-15T13:39:20.321Z,4.67
2019-02-15T13:41:46.891Z,8.37
2019-02-15T13:44:13.615Z,4.77
2019-02-15T13:46:40.406Z,4.30
2019-02-15T13:49:06.929Z,5.80
2019-02-15T13:51:33.477Z,5.53
2019-02-15T13:54:00.122Z,7.33
2019-02-15T13:56:26.642Z,3.87
2019-02-15T13:58:53.166Z,3.87
2019-02-15T14:01:19.868Z,7.70
2019-02-15T14:03:46.612Z,8.70
2019-02-15T14:06:13.476Z,5.57
2019-02-15T14:08:40.428Z,4.73
2019-02-15T14:11:07.116Z,6.03
2019-02-15T14:13:33.663Z,9.00
2019-02-15T14:16:00.213Z,3.40
2019-02-15T14:18:27.071Z,5.70
2019-02-15T14:20:59.806Z,5.20
2019-02-15T14:23:30.073Z,9.60
2019-02-15T14:26:09.017Z,9.30
2019-02-15T14:29:02.683Z,5.93
2019-02-15T14:31:29.500Z,6.20
2019-02-15T14:33:56.804Z,5.23
2019-02-15T14:36:23.943Z,11.17
2019-02-15T14:38:50.518Z,7.37
2019-02-15T14:41:17.174Z,7.30
2019-02-15T14:43:43.885Z,5.70
2019-02-15T14:46:10.623Z,6.40
2019-02-15T14:48:37.242Z,5.33
2019-02-15T14:51:03.796Z,5.93
2019-02-15T14:53:30.382Z,4.90
2019-02-15T14:55:57.064Z,7.50
2019-02-15T14:58:24.017Z,8.60
2019-02-15T15:00:50.711Z,7.60
2019-02-15T15:03:17.596Z,9.33
2019-02-15T15:05:44.197Z,5.10
2019-02-15T15:08:14.924Z,10.03
2019-02-15T15:10:42.392Z,5.37
2019-02-15T15:13:09.146Z,10.73
2019-02-15T15:15:36.323Z,7.60
2019-02-15T15:18:13.234Z,5.70
2019-02-15T15:20:35.662Z,7.77
2019-02-15T15:23:02.551Z,9.70
2019-02-15T15:25:31.207Z,7.93
2019-02-15T15:27:58.502Z,10.93
2019-02-15T15:30:25.109Z,6.67
2019-02-15T15:32:51.627Z,10.43
2019-02-15T15:35:19.365Z,6.37
2019-02-15T15:37:46.373Z,10.70
2019-02-15T15:40:12.980Z,4.87
2019-02-15T15:42:39.702Z,8.60
2019-02-15T15:45:07.474Z,6.90
2019-02-15T15:47:34.494Z,9.77
2019-02-15T15:50:02.059Z,5.67
2019-02-15T15:52:28.965Z,6.70
2019-02-15T15:54:56.573Z,6.50
2019-02-15T15:57:29.446Z,6.43
2019-02-15T16:00:04.896Z,6.23
2019-02-15T16:02:37.623Z,5.13
2019-02-15T16:05:08.334Z,5.00
2019-02-15T16:07:35.108Z,9.60
2019-02-15T16:10:01.955Z,7.37
2019-02-15T16:12:32.702Z,8.37
2019-02-15T16:15:04.222Z,10.07
2019-02-15T16:17:33.447Z,7.13
2019-02-15T16:20:05.935Z,7.13
2019-02-15T16:22:36.231Z,9.47
2019-02-15T16:25:08.562Z,8.57
2019-02-15T16:27:49.401Z,11.87
2019-02-15T16:30:21.506Z,9.07
2019-02-15T16:32:57.208Z,13.63
2019-02-15T16:35:26.577Z,6.43
2019-02-15T16:38:02.788Z,8.67
2019-02-15T16:40:33.208Z,7.13
2019-02-15T16:43:05.474Z,7.50
2019-02-15T16:45:32.624Z,8.17
2019-02-15T16:47:59.649Z,6.03
2019-02-15T16:50:26.178Z,6.83
2019-02-15T16:52:55.669Z,7.23
2019-02-15T16:55:23.246Z,10.27
2019-02-15T16:57:49.788Z,6.27
2019-02-15T17:00:17.831Z,8.13
2019-02-15T17:02:45.439Z,9.10
2019-02-15T17:05:12.570Z,8.43
2019-02-15T17:07:43.442Z,10.70
2019-02-15T17:10:10.560Z,6.67
2019-02-15T17:12:37.182Z,4.87
2019-02-15T17:15:03.893Z,9.90
2019-02-15T17:17:30.815Z,4.93
2019-02-15T17:19:57.663Z,9.67
2019-02-15T17:22:25.003Z,7.23
2019-02-15T17:24:52.230Z,7.47
2019-02-15T17:27:25.539Z,8.00
2019-02-15T17:29:52.877Z,6.23
2019-02-15T17:32:21.064Z,8.87
2019-02-15T17:34:49.157Z,8.37
2019-02-15T17:37:17.417Z,7.60
2019-02-15T17:39:46.890Z,8.77
2019-02-15T17:42:14.748Z,8.93
2019-02-15T17:44:45.909Z,5.57
2019-02-15T17:47:17.012Z,6.57
2019-02-15T17:49:43.886Z,8.13
2019-02-15T17:52:13.075Z,6.37
2019-02-15T17:54:40.473Z,3.87
2019-02-15T17:57:09.077Z,5.33
2019-02-15T17:59:35.750Z,9.73
2019-02-15T18:02:02.607Z,5.43
2019-02-15T18:04:29.269Z,8.20
2019-02-15T18:06:57.103Z,5.20
2019-02-15T18:09:24.507Z,6.33
2019-02-15T18:11:52.593Z,2.97
2019-02-15T18:14:19.930Z,4.83
2019-02-15T18:16:49.507Z,3.73
2019-02-15T18:19:16.866Z,7.30
2019-02-15T18:21:44.081Z,9.43
2019-02-15T18:24:11.973Z,4.73
2019-02-15T18:26:38.637Z,5.97
2019-02-15T18:29:05.520Z,3.53
2019-02-15T18:31:32.117Z,4.57
2019-02-15T18:33:58.890Z,3.27
2019-02-15T18:36:26.752Z,5.83
2019-02-15T18:38:53.610Z,5.43
2019-02-15T18:41:20.270Z,5.47
2019-02-15T18:43:48.038Z,4.10
2019-02-15T18:46:14.727Z,6.60
2019-02-15T18:48:41.376Z,3.10
2019-02-15T18:51:09.617Z,4.70
2019-02-15T18:53:36.088Z,3.90
2019-02-15T18:56:02.997Z,4.10
2019-02-15T18:58:30.875Z,4.93
2019-02-15T19:00:58.015Z,3.77
2019-02-15T19:03:25.387Z,5.50
2019-02-15T19:05:52.036Z,4.07
2019-02-15T19:08:19.075Z,8.67
2019-02-15T19:10:49.536Z,10.63
2019-02-15T19:13:17.455Z,13.17
2019-02-15T19:15:44.320Z,13.70
2019-02-15T19:18:11.514Z,13.30
2019-02-15T19:20:38.447Z,8.30
2019-02-15T19:23:05.225Z,5.30
2019-02-15T19:25:38.194Z,5.13
2019-02-15T19:28:04.797Z,5.83
2019-02-15T19:30:31.678Z,4.60
2019-02-15T19:32:58.433Z,5.13
2019-02-15T19:35:26.294Z,3.00
2019-02-15T19:37:52.859Z,3.13
2019-02-15T19:40:19.607Z,4.67
2019-02-15T19:42:48.065Z,4.97
2019-02-15T19:45:43.135Z,5.07
2019-02-15T19:48:10.202Z,3.87
2019-02-15T19:50:37.000Z,6.10
2019-02-15T19:53:06.285Z,4.27
2019-02-15T19:55:33.250Z,3.03
2019-02-15T19:57:59.939Z,8.77
2019-02-15T20:00:26.790Z,5.77
2019-02-15T20:03:01.084Z,3.93
2019-02-15T20:05:27.764Z,5.03
2019-02-15T20:07:56.451Z,5.07
2019-02-15T20:10:23.545Z,5.87
2019-02-15T20:12:50.685Z,2.63
2019-02-15T20:15:17.365Z,2.60
2019-02-15T20:17:43.927Z,2.83
2019-02-15T20:20:12.752Z,2.47
2019-02-15T20:22:39.354Z,1.87
2019-02-15T20:25:07.881Z,3.20
2019-02-15T20:27:34.699Z,5.00
2019-02-15T20:30:03.418Z,15.67
2019-02-15T20:32:30.258Z,11.87
2019-02-15T20:34:56.821Z,8.37
2019-02-15T20:37:23.660Z,4.97
2019-02-15T20:39:50.148Z,4.53
2019-02-15T20:42:17.342Z,5.17
2019-02-15T20:44:44.295Z,2.83
2019-02-15T20:47:11.170Z,3.60
2019-02-15T20:49:38.581Z,2.40
2019-02-15T20:52:05.290Z,6.57
2019-02-15T20:54:32.237Z,1.87
2019-02-15T20:57:01.576Z,5.33
2019-02-15T20:59:35.560Z,1.60
2019-02-15T21:02:04.316Z,1.57
2019-02-15T21:04:30.876Z,1.70
2019-02-15T21:07:00.128Z,0.90
2019-02-15T21:09:31.049Z,1.23
2019-02-15T21:11:59.026Z,2.53
2019-02-15T21:14:27.020Z,1.30
2019-02-15T21:16:53.992Z,0.87
2019-02-15T21:19:21.075Z,1.43
2019-02-15T21:21:47.746Z,1.47
2019-02-15T21:24:22.677Z,1.80
2019-02-15T21:26:51.673Z,2.83
2019-02-15T21:29:20.581Z,1.40
2019-02-15T21:31:48.286Z,1.57
2019-02-15T21:34:14.871Z,1.23
2019-02-15T21:36:41.402Z,2.60
2019-02-15T21:39:08.074Z,3.07
2019-02-15T21:41:34.577Z,1.57
2019-02-15T21:44:01.052Z,1.17
2019-02-15T21:46:27.548Z,1.73
2019-02-15T21:48:54.059Z,3.17
2019-02-15T21:51:20.585Z,2.87
2019-02-15T21:53:47.044Z,4.13
2019-02-15T21:56:13.595Z,2.67
2019-02-15T21:58:40.238Z,4.00
2019-02-15T22:01:06.817Z,8.63
2019-02-15T22:03:33.584Z,5.70
2019-02-15T22:06:00.046Z,4.90
2019-02-15T22:08:26.582Z,7.90
2019-02-15T22:10:53.066Z,5.83
2019-02-15T22:13:19.596Z,4.33
2019-02-15T22:15:46.130Z,3.53
2019-02-15T22:18:12.607Z,4.50
2019-02-15T22:20:39.139Z,7.07
2019-02-15T22:23:05.635Z,2.13
2019-02-15T22:25:32.171Z,2.70
2019-02-15T22:27:58.990Z,3.67
2019-02-15T22:30:25.557Z,2.53
2019-02-15T22:32:52.940Z,3.60
2019-02-15T22:35:19.420Z,3.17
2019-02-15T22:37:45.932Z,2.60
2019-02-15T22:40:32.476Z,1.67
2019-02-15T22:43:01.842Z,1.67
2019-02-15T22:45:30.042Z,3.67
2019-02-15T22:47:56.513Z,2.00
2019-02-15T22:50:23.023Z,4.90
2019-02-15T22:52:49.612Z,1.53
2019-02-15T22:55:16.086Z,1.93
2019-02-15T22:57:42.550Z,1.10
2019-02-15T23:00:15.373Z,2.00
2019-02-15T23:02:41.850Z,3.40
2019-02-15T23:05:08.334Z,3.27
2019-02-15T23:07:34.792Z,3.57
2019-02-15T23:10:01.261Z,3.00
2019-02-15T23:12:27.772Z,2.97
2019-02-15T23:14:54.236Z,4.33
2019-02-15T23:17:20.988Z,1.83
2019-02-15T23:19:47.771Z,3.00
2019-02-15T23:22:14.240Z,3.10
2019-02-15T23:24:40.747Z,2.30
2019-02-15T23:27:07.208Z,3.37
2019-02-15T23:29:33.729Z,1.93
2019-02-15T23:32:00.223Z,2.00
2019-02-15T23:34:27.030Z,2.57
2019-02-15T23:36:53.545Z,2.03
2019-02-15T23:39:20.285Z,1.43
2019-02-15T23:41:46.857Z,1.83
2019-02-15T23:44:13.361Z,1.50
2019-02-15T23:46:39.823Z,1.00
2019-02-15T23:49:06.326Z,1.57
2019-02-15T23:51:33.183Z,1.57
2019-02-15T23:53:59.682Z,1.43
2019-02-15T23:56:26.167Z,1.60
2019-02-15T23:58:53.151Z,1.00
